Time;durP1;ratioP1;P1;durP2;ratioP2;P2;SDS_P1;SDS_P2;PMS_P1;PMS_P2;Temp;Humidity;BMP_temperature;BMP_pressure;BME280_temperature;BME280_humidity;BME280_pressure;Samples;Min_cycle;Max_cycle;Signal;HPM_P1;HPM_P2
2022/12/21 00:02:03;;;;;;;55.63;35.70;;;5.90;96.60;;;;;;5096608;28;20381;-73
2022/12/21 00:04:29;;;;;;;59.33;38.13;;;5.90;96.60;;;;;;5096816;28;20024;-74
2022/12/21 00:06:55;;;;;;;60.97;40.00;;;5.90;96.60;;;;;;5096452;28;20058;-73
2022/12/21 00:09:20;;;;;;;60.67;37.53;;;5.90;96.80;;;;;;5096472;28;20024;-74
2022/12/21 00:11:46;;;;;;;56.73;39.13;;;5.90;96.80;;;;;;5096265;28;20538;-74
2022/12/21 00:14:12;;;;;;;61.43;37.40;;;5.90;96.80;;;;;;5096428;28;20021;-73
2022/12/21 00:16:40;;;;;;;55.07;37.77;;;5.90;96.80;;;;;;5096331;28;20068;-74
2022/12/21 00:19:06;;;;;;;61.03;39.63;;;5.90;96.80;;;;;;5095790;28;20028;-74
2022/12/21 00:21:36;;;;;;;58.47;38.90;;;5.90;96.80;;;;;;5096087;28;20478;-74
2022/12/21 00:24:02;;;;;;;58.20;39.47;;;5.90;96.80;;;;;;5096252;28;20094;-74
2022/12/21 00:26:31;;;;;;;56.23;39.17;;;5.90;96.70;;;;;;5096138;28;20024;-74
2022/12/21 00:28:58;;;;;;;53.93;37.27;;;5.90;96.90;;;;;;5095866;28;20028;-74
2022/12/21 00:31:29;;;;;;;58.97;39.53;;;5.90;97.00;;;;;;5077941;28;20024;-74
2022/12/21 00:33:56;;;;;;;59.53;40.23;;;5.90;96.90;;;;;;5096129;28;20070;-75
2022/12/21 00:36:23;;;;;;;61.57;40.80;;;5.90;96.90;;;;;;5095763;28;20032;-74
2022/12/21 00:38:49;;;;;;;61.87;40.67;;;5.90;96.90;;;;;;5095561;28;20024;-75
2022/12/21 00:41:17;;;;;;;59.80;41.90;;;5.90;96.90;;;;;;5095669;28;20112;-74
2022/12/21 00:43:44;;;;;;;67.50;44.50;;;5.90;96.90;;;;;;5095455;28;20077;-74
2022/12/21 00:46:22;;;;;;;63.80;44.53;;;5.90;96.90;;;;;;5096033;28;20012;-74
2022/12/21 00:48:48;;;;;;;71.50;46.33;;;5.90;96.90;;;;;;5095507;28;20028;-74
2022/12/21 00:51:17;;;;;;;70.80;45.13;;;5.90;96.90;;;;;;5095397;28;20024;-74
2022/12/21 00:53:43;;;;;;;68.20;45.77;;;5.90;97.00;;;;;;5095552;28;20032;-74
2022/12/21 00:56:10;;;;;;;71.83;47.70;;;5.90;97.00;;;;;;5094270;28;20478;-74
2022/12/21 00:58:37;;;;;;;69.63;46.23;;;5.90;97.00;;;;;;5095442;28;20107;-72
2022/12/21 01:01:18;;;;;;;73.90;49.33;;;5.90;97.00;;;;;;5095782;28;20058;-71
2022/12/21 01:03:45;;;;;;;71.50;45.90;;;5.90;97.00;;;;;;5095961;28;20378;-71
2022/12/21 01:06:16;;;;;;;72.87;46.27;;;5.90;97.00;;;;;;5096018;28;20024;-72
2022/12/21 01:08:42;;;;;;;76.63;49.17;;;5.90;97.00;;;;;;5095772;28;20028;-71
2022/12/21 01:11:15;;;;;;;70.33;47.87;;;5.90;97.10;;;;;;5095370;28;20024;-71
2022/12/21 01:20:18;;;;;;;79.10;50.53;;;5.90;97.00;;;;;;4993940;28;19912;-71
2022/12/21 01:23:37;;;;;;;78.27;51.50;;;5.90;96.90;;;;;;4993460;28;20026;-72
2022/12/21 01:26:41;;;;;;;78.87;52.87;;;5.90;97.00;;;;;;4912066;29;20398;-71
2022/12/21 01:30:07;;;;;;;;;;;;;;;;;;;;;
2022/12/21 01:42:53;;;;;;;74.13;47.67;;;6.00;97.00;;;;;;4802160;29;20040;-71
2022/12/21 01:45:29;;;;;;;74.47;50.87;;;6.00;97.00;;;;;;4984209;28;20463;-71
2022/12/21 01:48:10;;;;;;;71.43;49.60;;;5.90;97.10;;;;;;5075271;28;20397;-71
2022/12/21 01:50:51;;;;;;;77.67;48.70;;;6.00;97.30;;;;;;5094592;28;20404;-71
2022/12/21 01:53:25;;;;;;;72.93;47.73;;;6.00;97.30;;;;;;5094256;28;20408;-71
2022/12/21 01:55:53;;;;;;;73.97;49.07;;;6.00;97.30;;;;;;5094285;28;20035;-71
2022/12/21 01:58:22;;;;;;;75.70;49.27;;;6.00;97.30;;;;;;5092629;28;20024;-71
2022/12/21 02:00:48;;;;;;;72.00;48.97;;;6.00;97.40;;;;;;5091451;28;20036;-71
2022/12/21 02:03:18;;;;;;;72.60;46.30;;;6.00;97.20;;;;;;5091470;28;20027;-71
2022/12/21 02:05:58;;;;;;;69.77;46.23;;;6.00;97.30;;;;;;5093531;28;20436;-71
2022/12/21 02:08:23;;;;;;;73.23;45.20;;;6.00;97.30;;;;;;5093834;28;20497;-72
2022/12/21 02:10:52;;;;;;;71.97;46.13;;;6.00;97.30;;;;;;5094000;28;20024;-71
2022/12/21 02:13:17;;;;;;;68.20;46.43;;;6.00;97.30;;;;;;5093570;28;20095;-71
2022/12/21 02:15:58;;;;;;;73.17;48.40;;;6.00;97.40;;;;;;5093686;28;20485;-71
2022/12/21 02:18:30;;;;;;;64.03;45.93;;;6.00;97.40;;;;;;5093842;28;20466;-71
2022/12/21 02:21:31;;;;;;;77.77;47.73;;;6.00;97.40;;;;;;5093785;28;20496;-71
2022/12/21 02:23:56;;;;;;;72.87;46.70;;;6.00;97.40;;;;;;5093916;28;20024;-71
2022/12/21 02:26:40;;;;;;;68.87;46.23;;;6.00;97.30;;;;;;5093778;28;20028;-71
2022/12/21 02:29:27;;;;;;;70.07;47.57;;;6.00;97.30;;;;;;5093421;28;20035;-71
2022/12/21 02:32:19;;;;;;;69.13;46.40;;;6.00;97.30;;;;;;5093557;28;20363;-71
2022/12/21 02:34:51;;;;;;;71.77;47.03;;;6.00;97.40;;;;;;5088494;28;20043;-72
2022/12/21 02:37:52;;;;;;;69.73;44.37;;;6.00;97.40;;;;;;5093648;28;20028;-71
2022/12/21 02:40:30;;;;;;;60.73;42.07;;;6.00;97.40;;;;;;5093514;28;20059;-72
2022/12/21 02:46:37;;;;;;;50.33;34.38;;;6.00;97.30;;;;;;5093544;28;20035;-71
2022/12/21 02:49:17;;;;;;;50.90;32.97;;;6.00;97.20;;;;;;5093509;28;20016;-72
2022/12/21 02:51:50;;;;;;;44.50;30.20;;;6.10;97.20;;;;;;5093570;28;20462;-71
2022/12/21 02:54:17;;;;;;;39.95;24.10;;;6.00;97.20;;;;;;5093676;28;20397;-71
2022/12/21 02:56:43;;;;;;;36.50;21.00;;;6.00;97.20;;;;;;5093442;28;20024;-71
2022/12/21 02:59:13;;;;;;;31.07;19.73;;;6.10;97.20;;;;;;5093725;28;20055;-71
2022/12/21 03:02:14;;;;;;;32.80;21.23;;;6.00;97.10;;;;;;5093767;28;20111;-71
2022/12/21 03:05:39;;;;;;;;;;;;;;;;;;;;;
2022/12/21 03:29:06;;;;;;;39.20;23.90;;;6.10;96.80;;;;;;4972386;28;20057;-72
2022/12/21 03:35:29;;;;;;;36.50;24.97;;;6.10;96.90;;;;;;4913848;29;20068;-72
2022/12/21 03:37:57;;;;;;;45.37;28.43;;;6.10;96.90;;;;;;4971850;28;20019;-71
2022/12/21 03:40:30;;;;;;;37.97;26.30;;;6.10;96.90;;;;;;4971921;28;20038;-71
2022/12/21 03:43:23;;;;;;;34.42;24.73;;;6.00;97.30;;;;;;5045490;28;20393;-71
2022/12/21 03:46:00;;;;;;;38.40;26.05;;;6.00;97.40;;;;;;5092835;28;20385;-71
2022/12/21 03:48:42;;;;;;;38.10;25.17;;;6.00;97.30;;;;;;5092970;28;20028;-71
2022/12/21 03:51:20;;;;;;;37.85;25.73;;;6.10;97.20;;;;;;5092835;28;20028;-71
2022/12/21 03:53:54;;;;;;;35.37;23.70;;;6.10;97.10;;;;;;5092802;28;20436;-71
2022/12/21 03:56:27;;;;;;;34.00;22.67;;;6.00;97.10;;;;;;5092606;28;20401;-72
2022/12/21 03:58:53;;;;;;;38.13;24.02;;;6.10;97.10;;;;;;5074419;28;20374;-71
2022/12/21 04:01:27;;;;;;;35.33;24.83;;;6.10;97.00;;;;;;5092413;28;20039;-71
2022/12/21 04:04:02;;;;;;;38.50;23.70;;;6.10;97.00;;;;;;5092656;28;20052;-71
2022/12/21 04:06:33;;;;;;;39.17;23.80;;;6.10;97.00;;;;;;5092548;28;20448;-71
2022/12/21 04:08:59;;;;;;;37.93;24.50;;;6.10;96.90;;;;;;5092732;28;20462;-71
2022/12/21 04:14:20;;;;;;;52.40;35.27;;;6.10;96.90;;;;;;5092999;28;20098;-71
2022/12/21 04:16:46;;;;;;;56.13;38.17;;;6.10;96.90;;;;;;5092255;28;20036;-71
2022/12/21 04:21:56;;;;;;;46.00;30.83;;;6.10;97.00;;;;;;5092385;28;20062;-71
2022/12/21 04:29:53;;;;;;;44.43;29.53;;;6.20;97.00;;;;;;5092735;28;20131;-71
2022/12/21 04:32:19;;;;;;;57.57;36.80;;;6.10;97.00;;;;;;5095954;28;20052;-71
2022/12/21 04:34:45;;;;;;;48.80;34.13;;;6.10;96.90;;;;;;5095742;28;20070;-71
2022/12/21 04:39:55;;;;;;;46.73;32.27;;;6.10;97.00;;;;;;5095739;28;20031;-72
2022/12/21 04:42:21;;;;;;;55.07;36.57;;;6.20;97.00;;;;;;5095858;28;20106;-71
2022/12/21 04:44:47;;;;;;;60.20;40.27;;;6.20;96.90;;;;;;5095607;28;20024;-71
2022/12/21 04:47:13;;;;;;;53.27;34.77;;;6.10;97.00;;;;;;5095780;28;20027;-71
2022/12/21 04:49:38;;;;;;;53.23;34.93;;;6.20;97.10;;;;;;5095427;28;20091;-71
2022/12/21 04:52:04;;;;;;;52.83;33.93;;;6.10;97.10;;;;;;5095498;28;20052;-72
2022/12/21 04:54:30;;;;;;;50.90;32.40;;;6.20;97.20;;;;;;5096105;28;20059;-71
2022/12/21 04:56:56;;;;;;;51.50;35.10;;;6.10;97.20;;;;;;5096007;28;20077;-71
2022/12/21 04:59:22;;;;;;;51.70;35.00;;;6.10;97.20;;;;;;5096035;28;20359;-71
2022/12/21 05:01:48;;;;;;;56.07;37.57;;;6.10;97.20;;;;;;5095601;28;20020;-71
2022/12/21 05:04:14;;;;;;;57.57;35.60;;;6.10;97.20;;;;;;5095509;28;20017;-72
2022/12/21 05:14:35;;;;;;;54.10;35.70;;;6.10;97.30;;;;;;4916598;29;20091;-71
2022/12/21 05:18:00;;;;;;;50.77;34.47;;;6.10;97.30;;;;;;4916613;29;20076;-72
2022/12/21 05:31:34;;;;;;;57.67;35.23;;;6.10;97.20;;;;;;4827537;29;20172;-72
2022/12/21 05:34:00;;;;;;;46.77;31.10;;;6.10;97.20;;;;;;4810611;29;20457;-71
2022/12/21 05:36:26;;;;;;;47.37;30.53;;;6.10;97.40;;;;;;4938336;28;20460;-71
2022/12/21 05:38:54;;;;;;;41.40;27.43;;;6.10;97.30;;;;;;4993329;28;20033;-71
2022/12/21 05:41:20;;;;;;;43.10;27.97;;;6.10;97.40;;;;;;5075281;28;20390;-71
2022/12/21 05:43:46;;;;;;;42.77;27.33;;;6.10;97.30;;;;;;5094656;28;20028;-71
2022/12/21 05:46:13;;;;;;;42.17;26.43;;;6.10;97.30;;;;;;5094393;28;20023;-71
2022/12/21 05:48:39;;;;;;;41.07;27.40;;;6.10;97.20;;;;;;5094450;28;20386;-71
2022/12/21 05:51:09;;;;;;;45.00;27.17;;;6.10;97.20;;;;;;5094419;28;20023;-71
2022/12/21 05:53:37;;;;;;;33.20;23.47;;;6.10;97.30;;;;;;5094060;28;20174;-71
2022/12/21 05:56:03;;;;;;;36.53;23.57;;;6.10;97.30;;;;;;5094299;28;20032;-71
2022/12/21 05:58:28;;;;;;;35.77;23.10;;;6.10;97.20;;;;;;5094222;28;20050;-71
2022/12/21 06:00:54;;;;;;;37.90;22.90;;;6.20;97.20;;;;;;5094276;28;20035;-71
2022/12/21 06:03:21;;;;;;;34.97;23.43;;;6.20;97.10;;;;;;5094621;28;20095;-71
2022/12/21 06:05:46;;;;;;;39.47;22.43;;;6.20;97.10;;;;;;5094214;28;20031;-71
2022/12/21 06:08:12;;;;;;;37.53;21.50;;;6.20;97.10;;;;;;5093951;28;20024;-71
2022/12/21 06:10:38;;;;;;;32.47;19.90;;;6.20;97.10;;;;;;5093541;28;20028;-71
2022/12/21 06:13:04;;;;;;;33.10;20.50;;;6.20;97.10;;;;;;5093999;28;20052;-71
2022/12/21 06:15:30;;;;;;;32.03;20.80;;;6.20;97.00;;;;;;5093341;28;20058;-71
2022/12/21 06:17:56;;;;;;;32.97;21.00;;;6.20;97.00;;;;;;5093858;28;20051;-71
2022/12/21 06:20:22;;;;;;;32.90;20.30;;;6.20;97.00;;;;;;5093808;28;20028;-70
2022/12/21 06:22:48;;;;;;;35.00;21.33;;;6.20;97.00;;;;;;5093848;28;20097;-71
2022/12/21 06:25:13;;;;;;;36.53;21.30;;;6.20;97.00;;;;;;5093834;28;20035;-71
2022/12/21 06:27:39;;;;;;;36.30;22.27;;;6.20;96.90;;;;;;5093732;28;20020;-71
2022/12/21 06:30:06;;;;;;;35.90;21.33;;;6.20;96.90;;;;;;5093710;28;20031;-71
2022/12/21 06:32:31;;;;;;;39.50;22.87;;;6.20;96.90;;;;;;5093213;28;20503;-72
2022/12/21 06:34:57;;;;;;;39.17;22.60;;;6.20;96.90;;;;;;5093531;28;20032;-71
2022/12/21 06:37:23;;;;;;;40.03;23.17;;;6.20;96.90;;;;;;5093201;28;20039;-72
2022/12/21 06:39:49;;;;;;;34.80;21.07;;;6.20;96.90;;;;;;5093450;28;20020;-71
2022/12/21 06:42:14;;;;;;;39.30;21.20;;;6.20;96.90;;;;;;5093378;28;20024;-71
2022/12/21 06:44:40;;;;;;;34.97;20.83;;;6.20;96.90;;;;;;5093739;28;20478;-71
2022/12/21 06:47:06;;;;;;;39.60;23.47;;;6.20;96.80;;;;;;5093292;28;20454;-71
2022/12/21 06:49:32;;;;;;;37.57;21.10;;;6.20;96.80;;;;;;5092692;28;20016;-72
2022/12/21 06:51:58;;;;;;;38.13;21.33;;;6.20;96.80;;;;;;5092664;28;20048;-71
2022/12/21 06:54:24;;;;;;;40.07;20.33;;;6.20;96.70;;;;;;5074749;28;20020;-71
2022/12/21 06:57:01;;;;;;;35.67;21.60;;;6.20;96.70;;;;;;5093893;28;20437;-71
2022/12/21 06:59:59;;;;;;;33.50;20.40;;;6.20;96.60;;;;;;5091975;28;20484;-70
2022/12/21 07:02:55;;;;;;;35.73;20.50;;;6.20;96.70;;;;;;5050997;28;20059;-70
2022/12/21 07:06:20;;;;;;;33.10;20.27;;;6.20;96.60;;;;;;5080131;28;20066;-72
2022/12/21 07:09:12;;;;;;;39.20;20.37;;;6.20;96.60;;;;;;4987275;28;20494;-69
2022/12/21 07:28:09;;;;;;;45.67;30.98;;;6.20;96.50;;;;;;4922575;29;20038;-74
2022/12/21 07:30:35;;;;;;;59.67;37.93;;;6.30;96.60;;;;;;4968907;28;20041;-75
2022/12/21 07:33:01;;;;;;;55.33;36.80;;;6.30;96.70;;;;;;5080695;28;20029;-74
2022/12/21 07:35:27;;;;;;;59.90;36.07;;;6.30;96.90;;;;;;5092087;28;20032;-77
2022/12/21 07:37:53;;;;;;;61.30;38.67;;;6.20;97.00;;;;;;5092325;28;20024;-78
2022/12/21 07:40:20;;;;;;;65.30;45.30;;;6.30;97.10;;;;;;5092036;28;20027;-75
2022/12/21 07:42:46;;;;;;;70.90;46.73;;;6.30;97.10;;;;;;5092318;28;20107;-76
2022/12/21 07:45:13;;;;;;;73.87;48.43;;;6.30;97.10;;;;;;5092078;28;20020;-76
2022/12/21 07:47:39;;;;;;;71.67;46.40;;;6.30;97.20;;;;;;5092169;28;20393;-76
2022/12/21 07:50:06;;;;;;;73.80;50.20;;;6.30;97.20;;;;;;5074072;28;20051;-73
2022/12/21 07:52:33;;;;;;;67.73;45.73;;;6.30;97.30;;;;;;5091928;28;20391;-80
2022/12/21 07:55:00;;;;;;;70.97;47.10;;;6.30;97.30;;;;;;5092133;28;20466;-81
2022/12/21 07:57:26;;;;;;;69.47;47.27;;;6.30;97.40;;;;;;5092320;28;20512;-82
2022/12/21 07:59:52;;;;;;;71.00;47.57;;;6.30;97.40;;;;;;5092282;28;20048;-81
2022/12/21 08:02:17;;;;;;;70.83;47.70;;;6.30;97.40;;;;;;5091933;28;20028;-84
2022/12/21 08:04:43;;;;;;;68.87;45.87;;;6.30;97.70;;;;;;5093764;28;20086;-80
2022/12/21 08:07:09;;;;;;;72.20;46.33;;;6.30;97.50;;;;;;5096307;28;20035;-81
2022/12/21 08:09:35;;;;;;;63.80;43.23;;;6.40;97.40;;;;;;5095836;28;20533;-80
2022/12/21 08:12:01;;;;;;;77.23;46.30;;;6.30;97.30;;;;;;5095956;28;20032;-78
2022/12/21 08:14:27;;;;;;;75.30;45.03;;;6.40;97.30;;;;;;5095940;28;20474;-80
2022/12/21 08:16:54;;;;;;;76.17;44.90;;;6.30;97.30;;;;;;5095853;28;20166;-80
2022/12/21 08:19:20;;;;;;;73.43;46.20;;;6.40;97.40;;;;;;5095797;28;20462;-81
2022/12/21 08:21:46;;;;;;;66.63;43.93;;;6.40;97.40;;;;;;5096420;28;20476;-79
2022/12/21 08:24:12;;;;;;;63.90;42.80;;;6.40;97.50;;;;;;5095220;28;20109;-74
2022/12/21 08:26:37;;;;;;;64.43;43.27;;;6.40;97.50;;;;;;5096075;28;20059;-72
2022/12/21 08:29:05;;;;;;;68.77;43.50;;;6.40;97.50;;;;;;5096005;28;20024;-72
2022/12/21 08:31:31;;;;;;;66.07;44.00;;;6.40;97.80;;;;;;5095642;28;20024;-75
2022/12/21 08:33:57;;;;;;;72.27;45.00;;;6.40;97.50;;;;;;5095269;28;20059;-75
2022/12/21 08:36:24;;;;;;;71.60;44.70;;;6.40;97.50;;;;;;5095391;28;20036;-74
2022/12/21 08:38:51;;;;;;;65.60;44.73;;;6.40;97.60;;;;;;5095866;28;20028;-77
2022/12/21 08:41:17;;;;;;;64.33;43.20;;;6.40;97.80;;;;;;5095674;28;20028;-75
2022/12/21 08:43:44;;;;;;;63.50;40.60;;;6.40;97.80;;;;;;5095576;28;20058;-76
2022/12/21 08:46:13;;;;;;;56.07;37.33;;;6.40;97.70;;;;;;5095478;28;20066;-76
2022/12/21 09:13:20;;;;;;;49.33;29.70;;;6.50;97.30;;;;;;4955066;29;20050;-83
2022/12/21 09:15:46;;;;;;;44.70;30.33;;;6.50;97.30;;;;;;4954410;28;20043;-81
2022/12/21 09:18:15;;;;;;;50.47;31.63;;;6.50;97.40;;;;;;4961374;28;20480;-78
2022/12/21 09:20:41;;;;;;;50.07;32.70;;;6.50;97.40;;;;;;5071624;28;20432;-84
2022/12/21 09:23:07;;;;;;;51.03;30.87;;;6.50;97.60;;;;;;5072643;28;20120;-89
2022/12/21 09:25:34;;;;;;;60.87;34.80;;;6.50;97.60;;;;;;5073368;28;20033;-87
2022/12/21 09:28:01;;;;;;;49.80;32.03;;;6.50;97.70;;;;;;5075323;28;20027;-87
2022/12/21 09:30:28;;;;;;;54.03;34.57;;;6.50;97.70;;;;;;5057286;28;20119;-86
2022/12/21 09:32:54;;;;;;;57.83;35.73;;;6.50;97.70;;;;;;5074498;28;20027;-77
2022/12/21 09:35:20;;;;;;;62.60;40.60;;;6.50;97.70;;;;;;5074289;28;20036;-86
2022/12/21 09:37:45;;;;;;;60.67;37.57;;;6.50;97.80;;;;;;5057205;28;20036;-87
2022/12/21 09:40:14;;;;;;;63.63;35.93;;;6.60;97.90;;;;;;5056653;28;20032;-84
2022/12/21 09:42:57;;;;;;;64.97;38.07;;;6.60;97.80;;;;;;5074525;28;20042;-79
2022/12/21 09:45:28;;;;;;;;;;;6.60;97.80;;;;;;5075222;28;20056;-82
2022/12/21 09:47:59;;;;;;;65.87;40.00;;;6.60;97.70;;;;;;5074867;28;19908;-86
2022/12/21 09:50:42;;;;;;;63.13;39.40;;;6.60;97.80;;;;;;5074571;28;20040;-86
2022/12/21 09:53:25;;;;;;;63.00;38.53;;;6.60;97.80;;;;;;5074504;28;20036;-87
2022/12/21 09:55:54;;;;;;;59.87;38.13;;;6.60;97.80;;;;;;5074438;28;20297;-84
2022/12/21 09:58:28;;;;;;;59.23;37.63;;;6.60;97.90;;;;;;5076845;28;20025;-69
2022/12/21 10:01:07;;;;;;;60.60;36.63;;;6.70;98.10;;;;;;5076304;28;20038;-84
2022/12/21 10:03:51;;;;;;;58.43;35.23;;;6.60;98.00;;;;;;5074267;28;20103;-83
2022/12/21 10:06:36;;;;;;;58.13;34.23;;;6.60;98.00;;;;;;5093518;28;20114;-85
2022/12/21 10:09:34;;;;;;;52.80;33.07;;;6.70;98.00;;;;;;5075853;28;20389;-84
2022/12/21 10:12:18;;;;;;;52.00;31.43;;;6.70;97.90;;;;;;5094425;28;20024;-85
2022/12/21 10:15:11;;;;;;;53.43;29.10;;;6.70;97.90;;;;;;5094312;28;20528;-86
2022/12/21 10:17:55;;;;;;;;;;;6.70;97.90;;;;;;5094301;28;20085;-74
2022/12/21 10:20:30;;;;;;;52.17;28.20;;;6.70;97.80;;;;;;5094920;28;19911;-84
2022/12/21 10:23:16;;;;;;;52.97;28.53;;;6.70;97.70;;;;;;5094764;28;20039;-82
2022/12/21 10:25:54;;;;;;;50.97;28.33;;;6.70;97.70;;;;;;5094673;28;20024;-84
2022/12/21 10:28:32;;;;;;;55.20;26.87;;;6.70;97.80;;;;;;5094452;28;20032;-75
2022/12/21 10:31:30;;;;;;;47.27;27.67;;;6.70;97.80;;;;;;5075900;28;20135;-78
2022/12/21 10:40:52;;;;;;;50.73;27.30;;;6.70;97.70;;;;;;5094398;28;20031;-83
2022/12/21 11:04:07;;;;;;;53.50;26.90;;;6.80;97.60;;;;;;4976587;28;20491;-85
2022/12/21 11:06:34;;;;;;;45.63;28.30;;;6.80;97.50;;;;;;5073467;28;20363;-87
2022/12/21 11:09:01;;;;;;;48.23;29.50;;;6.80;97.60;;;;;;5074520;28;20044;-88
2022/12/21 11:11:33;;;;;;;58.70;30.60;;;6.80;97.60;;;;;;5073802;28;20389;-87
2022/12/21 11:14:12;;;;;;;60.30;33.90;;;6.80;97.70;;;;;;5073306;28;20099;-89
2022/12/21 11:16:38;;;;;;;58.10;32.90;;;6.80;97.80;;;;;;5073124;28;20401;-87
2022/12/21 11:19:10;;;;;;;59.97;35.43;;;6.80;97.80;;;;;;5072818;28;20024;-81
2022/12/21 11:21:46;;;;;;;75.50;36.63;;;6.80;97.80;;;;;;5072825;28;20386;-79
2022/12/21 11:24:19;;;;;;;62.10;37.03;;;6.80;97.80;;;;;;5072797;28;20431;-77
2022/12/21 11:26:54;;;;;;;58.47;36.20;;;6.80;97.70;;;;;;5072591;28;20029;-79
2022/12/21 11:29:26;;;;;;;63.00;38.10;;;6.80;97.80;;;;;;5072731;28;20035;-77
2022/12/21 11:32:01;;;;;;;62.77;36.83;;;6.80;97.90;;;;;;5073026;28;20037;-78
2022/12/21 11:34:36;;;;;;;66.97;38.83;;;6.80;97.90;;;;;;5072781;28;20544;-78
2022/12/21 11:37:21;;;;;;;69.97;45.40;;;6.80;97.90;;;;;;5072652;28;20138;-79
2022/12/21 11:39:47;;;;;;;66.50;40.73;;;6.80;97.90;;;;;;5074127;28;20532;-78
2022/12/21 11:42:22;;;;;;;62.30;37.93;;;6.90;98.00;;;;;;5076609;28;20028;-79
2022/12/21 11:45:20;;;;;;;64.50;37.97;;;6.90;98.00;;;;;;5076525;28;20541;-78
2022/12/21 11:48:03;;;;;;;70.20;38.93;;;6.90;98.10;;;;;;5076390;28;20025;-77
2022/12/21 11:50:35;;;;;;;64.90;37.53;;;6.90;98.10;;;;;;5076478;28;20055;-78
2022/12/21 11:53:29;;;;;;;66.03;38.70;;;6.90;98.20;;;;;;5076412;28;20492;-79
2022/12/21 11:56:26;;;;;;;65.07;36.87;;;6.90;98.40;;;;;;5067064;28;20526;-71
2022/12/21 11:59:00;;;;;;;61.37;37.50;;;6.90;98.40;;;;;;5076414;28;20454;-74
2022/12/21 12:01:51;;;;;;;63.20;38.07;;;6.90;98.20;;;;;;5094848;28;20058;-74
2022/12/21 12:04:34;;;;;;;63.20;37.23;;;6.90;98.30;;;;;;5096547;28;20031;-71
2022/12/21 12:07:28;;;;;;;61.60;38.23;;;6.90;98.20;;;;;;5096391;28;20035;-72
2022/12/21 12:10:13;;;;;;;72.67;39.60;;;6.90;98.20;;;;;;5096946;28;20036;-72
2022/12/21 12:12:57;;;;;;;63.07;38.87;;;6.90;98.30;;;;;;5096697;28;20111;-75
2022/12/21 12:15:40;;;;;;;63.40;39.40;;;7.00;98.30;;;;;;5096525;28;20062;-76
2022/12/21 12:18:24;;;;;;;60.47;37.47;;;7.00;98.30;;;;;;5096741;28;20031;-79
2022/12/21 12:21:22;;;;;;;56.50;34.83;;;7.00;98.40;;;;;;5097143;28;20094;-74
2022/12/21 12:52:25;;;;;;;;;;;;;;;;;;;;;
2022/12/21 12:54:40;;;;;;;67.07;39.33;;;7.00;98.50;;;;;;4956411;28;20061;-77
2022/12/21 12:57:34;;;;;;;66.93;40.30;;;7.00;98.60;;;;;;4998115;28;20406;-78
2022/12/21 13:00:09;;;;;;;63.43;39.77;;;7.00;98.60;;;;;;5095081;28;20055;-77
2022/12/21 13:03:11;;;;;;;68.27;39.47;;;7.00;98.70;;;;;;5076910;28;20386;-78
2022/12/21 13:06:18;;;;;;;69.37;40.77;;;7.00;98.70;;;;;;5095207;28;20035;-78
2022/12/21 13:09:03;;;;;;;69.27;40.27;;;7.00;98.70;;;;;;5081576;28;20379;-78
2022/12/21 13:11:36;;;;;;;66.63;41.37;;;7.10;98.80;;;;;;5094990;28;20035;-78
2022/12/21 13:14:08;;;;;;;70.25;40.80;;;7.10;98.80;;;;;;5095414;28;20027;-78
2022/12/21 13:16:50;;;;;;;73.73;41.80;;;7.10;98.90;;;;;;5095070;28;20440;-77
2022/12/21 13:19:17;;;;;;;75.28;42.10;;;7.10;98.90;;;;;;5095058;28;20396;-78
2022/12/21 13:21:46;;;;;;;71.27;41.57;;;7.10;98.90;;;;;;5094631;28;20462;-78
2022/12/21 13:24:20;;;;;;;78.13;44.13;;;7.10;98.90;;;;;;5094750;28;20478;-78
2022/12/21 13:26:53;;;;;;;71.13;42.17;;;7.10;99.00;;;;;;5094905;28;20338;-76
2022/12/21 13:29:30;;;;;;;76.32;41.33;;;7.10;99.00;;;;;;5094960;28;20025;-78
2022/12/21 13:32:14;;;;;;;73.30;42.77;;;7.10;99.00;;;;;;5094897;28;20512;-77
2022/12/21 13:34:57;;;;;;;73.07;42.70;;;7.10;99.00;;;;;;5094759;28;20028;-78
2022/12/21 13:37:24;;;;;;;74.67;46.13;;;7.10;99.00;;;;;;5094772;28;20032;-76
2022/12/21 13:40:05;;;;;;;68.83;42.37;;;7.10;99.00;;;;;;5094464;28;20074;-77
2022/12/21 13:42:52;;;;;;;70.20;41.80;;;7.10;99.10;;;;;;5094788;28;20027;-77
2022/12/21 13:45:48;;;;;;;67.20;42.30;;;7.10;99.10;;;;;;5094359;28;20028;-78
2022/12/21 13:48:19;;;;;;;73.83;43.33;;;7.10;99.10;;;;;;5094734;28;20027;-75
2022/12/21 13:50:59;;;;;;;75.83;44.27;;;7.10;99.00;;;;;;5075675;28;20459;-77
2022/12/21 13:53:30;;;;;;;71.47;43.20;;;7.10;99.00;;;;;;5075421;28;20835;-79
2022/12/21 13:56:11;;;;;;;75.43;46.03;;;7.10;99.10;;;;;;5093817;28;20024;-79
2022/12/21 13:59:16;;;;;;;82.87;47.87;;;7.10;99.10;;;;;;5092689;28;20394;-77
2022/12/21 14:01:57;;;;;;;78.93;48.97;;;7.10;99.10;;;;;;5012153;28;20120;-76
2022/12/21 14:04:47;;;;;;;75.87;46.17;;;7.10;99.10;;;;;;5083286;28;20020;-75
2022/12/21 14:07:43;;;;;;;73.30;47.50;;;7.10;99.10;;;;;;5093193;28;20032;-78
2022/12/21 14:31:41;;;;;;;97.57;62.03;;;7.10;99.30;;;;;;4943927;28;20098;-70
2022/12/21 14:34:44;;;;;;;96.10;58.20;;;7.10;99.40;;;;;;4937977;28;20039;-71
2022/12/21 14:40:24;;;;;;;103.97;63.17;;;7.10;99.40;;;;;;4969630;28;20033;-71
2022/12/21 14:42:55;;;;;;;96.03;59.07;;;7.10;99.40;;;;;;5020700;28;20188;-81
2022/12/21 14:45:42;;;;;;;98.07;56.83;;;7.10;99.50;;;;;;5064608;28;20036;-75
2022/12/21 14:48:44;;;;;;;95.53;58.70;;;7.10;99.40;;;;;;5071928;28;20035;-74
2022/12/21 14:51:30;;;;;;;98.27;58.70;;;7.10;99.40;;;;;;5068914;28;20055;-78
2022/12/21 14:54:08;;;;;;;94.13;56.33;;;7.10;99.40;;;;;;5069320;28;20398;-71
2022/12/21 14:56:36;;;;;;;98.47;60.00;;;7.10;99.40;;;;;;5072062;28;20402;-73
2022/12/21 14:59:06;;;;;;;107.07;63.00;;;7.10;99.40;;;;;;5072825;28;20025;-72
2022/12/21 15:01:42;;;;;;;95.27;59.00;;;7.10;99.50;;;;;;5072295;28;20052;-72
2022/12/21 15:04:24;;;;;;;103.73;59.33;;;7.10;99.50;;;;;;5072488;28;20036;-72
2022/12/21 15:07:02;;;;;;;96.15;55.60;;;7.10;99.60;;;;;;5072861;28;20474;-72
2022/12/21 15:09:33;;;;;;;96.90;57.97;;;7.10;99.60;;;;;;5073056;28;20467;-72
2022/12/21 15:12:40;;;;;;;94.67;58.23;;;7.10;99.60;;;;;;5073177;28;20378;-73
2022/12/21 15:15:36;;;;;;;93.43;56.13;;;7.10;99.70;;;;;;5072173;28;20504;-74
2022/12/21 15:18:24;;;;;;;106.40;58.30;;;7.10;99.70;;;;;;5060275;28;20391;-73
2022/12/21 15:20:54;;;;;;;105.97;61.97;;;7.10;99.70;;;;;;5072844;28;20028;-72
2022/12/21 15:23:28;;;;;;;100.93;63.63;;;7.10;99.70;;;;;;5071673;28;20367;-72
2022/12/21 15:26:22;;;;;;;103.03;63.00;;;7.10;99.70;;;;;;5072865;28;20056;-74
2022/12/21 15:28:50;;;;;;;104.87;63.30;;;7.10;99.80;;;;;;5072735;28;20033;-71
2022/12/21 15:31:24;;;;;;;92.80;58.40;;;7.10;99.80;;;;;;5072577;28;20036;-71
2022/12/21 15:33:53;;;;;;;99.90;59.10;;;7.10;99.90;;;;;;5072588;28;20021;-77
2022/12/21 15:36:32;;;;;;;89.53;55.73;;;7.10;99.80;;;;;;5072691;28;20486;-74
2022/12/21 15:39:00;;;;;;;95.03;57.43;;;7.10;99.80;;;;;;5072705;28;20017;-73
2022/12/21 15:42:00;;;;;;;103.50;60.93;;;7.10;99.70;;;;;;5072548;28;20028;-74
2022/12/21 15:44:59;;;;;;;98.33;61.73;;;7.10;99.70;;;;;;5072487;28;20078;-71
2022/12/21 15:47:49;;;;;;;99.43;60.30;;;7.10;99.70;;;;;;5020574;28;20048;-74
2022/12/21 15:50:39;;;;;;;106.77;63.67;;;7.10;99.70;;;;;;5073476;28;20036;-76
2022/12/21 15:53:17;;;;;;;95.40;58.87;;;7.10;99.70;;;;;;5065452;28;20545;-71
2022/12/21 15:55:43;;;;;;;90.83;54.60;;;7.10;99.80;;;;;;5072828;28;20036;-71
2022/12/21 16:19:51;;;;;;;87.40;52.73;;;7.10;99.70;;;;;;5010397;28;20049;-74
2022/12/21 16:25:53;;;;;;;82.67;52.73;;;7.10;99.70;;;;;;4972684;28;20093;-72
2022/12/21 16:28:25;;;;;;;79.70;51.40;;;7.10;99.70;;;;;;4974905;28;20035;-70
2022/12/21 16:31:13;;;;;;;84.07;54.87;;;7.10;99.70;;;;;;5012423;28;20399;-73
2022/12/21 16:33:52;;;;;;;84.97;52.97;;;7.10;99.80;;;;;;5066406;28;20051;-73
2022/12/21 16:36:24;;;;;;;82.90;50.10;;;7.10;99.90;;;;;;5075482;28;20048;-71
2022/12/21 16:38:51;;;;;;;86.90;50.47;;;7.10;99.90;;;;;;5075895;28;20032;-73
2022/12/21 16:41:17;;;;;;;73.73;48.60;;;7.10;99.90;;;;;;5075744;28;20043;-71
2022/12/21 16:43:58;;;;;;;85.47;51.57;;;7.10;99.90;;;;;;5075562;28;20029;-71
2022/12/21 16:46:39;;;;;;;79.63;50.73;;;7.10;99.90;;;;;;5057644;28;20711;-71
2022/12/21 16:49:25;;;;;;;94.40;57.33;;;7.20;99.90;;;;;;5075502;28;20025;-71
2022/12/21 16:51:58;;;;;;;98.47;56.90;;;7.20;99.90;;;;;;5064595;28;20036;-70
2022/12/21 16:54:39;;;;;;;;;;;7.20;99.90;;;;;;5074480;28;20031;-70
2022/12/21 16:57:09;;;;;;;89.40;53.77;;;7.20;99.90;;;;;;5075487;28;20358;-70
2022/12/21 16:59:35;;;;;;;78.00;49.07;;;7.20;99.80;;;;;;5075456;28;20418;-71
2022/12/21 17:02:11;;;;;;;79.70;49.07;;;7.20;99.90;;;;;;5075500;28;20063;-71
2022/12/21 17:04:38;;;;;;;79.30;46.87;;;7.20;99.90;;;;;;5075122;28;20024;-73